createdAt,value
2023-02-02T00:01:26.249Z,33.88
2023-02-02T00:03:53.904Z,26.75
2023-02-02T00:06:22.318Z,34.55
2023-02-02T00:08:49.431Z,30.02
2023-02-02T00:11:17.109Z,40.53
2023-02-02T00:13:44.446Z,27.88
2023-02-02T00:16:30.215Z,29.05
2023-02-02T00:19:06.375Z,47.92
2023-02-02T00:21:33.478Z,39.72
2023-02-02T00:24:00.414Z,34.92
2023-02-02T00:26:27.685Z,32.50
2023-02-02T00:28:54.619Z,35.42
2023-02-02T00:31:22.000Z,31.95
2023-02-02T00:33:50.222Z,42.92
2023-02-02T00:36:17.991Z,37.72
2023-02-02T00:38:44.977Z,38.55
2023-02-02T00:41:11.988Z,35.00
2023-02-02T00:43:38.906Z,32.50
2023-02-02T00:46:06.258Z,36.15
2023-02-02T00:48:33.228Z,33.88
2023-02-02T00:51:02.320Z,34.63
2023-02-02T00:53:29.347Z,28.17
2023-02-02T00:55:56.338Z,37.38
2023-02-02T00:58:23.211Z,34.55
2023-02-02T01:00:50.229Z,35.65
2023-02-02T01:03:17.456Z,38.00
2023-02-02T01:05:44.425Z,39.03
2023-02-02T01:08:11.443Z,30.55
2023-02-02T01:10:39.224Z,29.00
2023-02-02T01:13:06.090Z,30.33
2023-02-02T01:15:33.048Z,28.90
2023-02-02T01:17:59.907Z,28.55
2023-02-02T01:20:26.850Z,21.42
2023-02-02T01:22:53.790Z,33.92
2023-02-02T01:25:20.827Z,39.55
2023-02-02T01:27:47.711Z,22.42
2023-02-02T01:30:14.785Z,27.77
2023-02-02T01:32:41.717Z,28.55
2023-02-02T01:35:10.366Z,27.98
2023-02-02T01:37:39.106Z,28.65
2023-02-02T01:40:07.197Z,25.35
2023-02-02T01:42:34.118Z,28.98
2023-02-02T01:45:10.087Z,28.50
2023-02-02T01:47:43.344Z,25.83
2023-02-02T01:50:11.931Z,22.20
2023-02-02T01:52:39.182Z,21.15
2023-02-02T01:55:10.548Z,15.35
2023-02-02T01:57:45.893Z,20.48
2023-02-02T02:00:15.185Z,24.63
2023-02-02T02:02:46.146Z,32.80
2023-02-02T02:05:16.290Z,22.38
2023-02-02T02:07:44.575Z,25.20
2023-02-02T02:10:11.587Z,27.05
2023-02-02T02:12:38.564Z,25.27
2023-02-02T02:15:25.007Z,23.25
2023-02-02T02:18:09.153Z,32.13
2023-02-02T02:21:16.997Z,25.90
2023-02-02T02:24:34.876Z,25.95
2023-02-02T02:27:28.003Z,29.45
2023-02-02T02:30:17.974Z,30.58
2023-02-02T02:33:03.791Z,23.80
2023-02-02T02:36:00.274Z,27.10
2023-02-02T02:38:33.339Z,30.45
2023-02-02T02:41:06.268Z,31.98
2023-02-02T02:43:38.349Z,30.40
2023-02-02T02:46:05.467Z,32.05
2023-02-02T02:48:32.469Z,26.35
2023-02-02T02:51:36.952Z,26.40
2023-02-02T02:54:04.285Z,24.90
2023-02-02T02:56:57.299Z,26.52
2023-02-02T02:59:38.635Z,28.40
2023-02-02T03:02:08.799Z,25.10
2023-02-02T03:04:44.312Z,26.35
2023-02-02T03:07:18.822Z,27.88
2023-02-02T03:09:46.574Z,23.52
2023-02-02T03:12:16.779Z,23.42
2023-02-02T03:14:43.828Z,20.75
2023-02-02T03:17:10.671Z,20.25
2023-02-02T03:19:37.645Z,27.40
2023-02-02T03:22:04.507Z,22.60
2023-02-02T03:24:31.626Z,21.90
2023-02-02T03:26:58.482Z,26.02
2023-02-02T03:29:25.690Z,29.38
2023-02-02T03:31:52.695Z,22.90
2023-02-02T03:34:19.697Z,19.83
2023-02-02T03:36:46.558Z,25.50
2023-02-02T03:39:13.552Z,25.38
2023-02-02T03:41:40.434Z,22.63
2023-02-02T03:44:07.378Z,20.38
2023-02-02T03:46:35.455Z,18.15
2023-02-02T03:49:02.499Z,16.95
2023-02-02T03:51:29.324Z,15.02
2023-02-02T03:53:56.227Z,23.90
2023-02-02T03:56:23.097Z,25.40
2023-02-02T03:58:50.093Z,23.92
2023-02-02T04:01:16.995Z,18.80
2023-02-02T04:03:44.067Z,21.52
2023-02-02T04:06:10.956Z,19.02
2023-02-02T04:08:39.505Z,22.67
2023-02-02T04:11:11.041Z,21.30
2023-02-02T04:13:38.196Z,13.73
2023-02-02T04:16:05.647Z,14.02
2023-02-02T04:18:32.570Z,17.58
2023-02-02T04:21:01.278Z,14.35
2023-02-02T04:23:31.606Z,15.20
2023-02-02T04:25:59.113Z,11.82
2023-02-02T04:28:26.763Z,17.75
2023-02-02T04:30:54.993Z,13.20
2023-02-02T04:33:23.569Z,14.90
2023-02-02T04:35:51.031Z,15.32
2023-02-02T04:38:18.046Z,13.73
2023-02-02T04:40:46.957Z,9.45
2023-02-02T04:43:14.284Z,6.18
2023-02-02T04:45:42.581Z,9.23
2023-02-02T04:48:09.659Z,11.20
2023-02-02T04:50:36.676Z,8.55
2023-02-02T04:53:04.591Z,7.47
2023-02-02T04:55:31.520Z,9.57
2023-02-02T04:57:58.440Z,7.38
2023-02-02T05:00:25.526Z,8.13
2023-02-02T05:02:52.637Z,9.02
2023-02-02T05:05:20.694Z,7.53
2023-02-02T05:07:47.653Z,7.78
2023-02-02T05:10:14.591Z,10.48
2023-02-02T05:12:41.641Z,9.07
2023-02-02T05:15:09.598Z,7.97
2023-02-02T05:17:36.626Z,10.07
2023-02-02T05:20:04.130Z,7.82
2023-02-02T05:22:31.198Z,10.98
2023-02-02T05:24:58.140Z,13.27
2023-02-02T05:27:24.991Z,10.68
2023-02-02T05:29:52.095Z,13.32
2023-02-02T05:32:19.609Z,9.27
2023-02-02T05:34:46.577Z,12.73
2023-02-02T05:37:13.378Z,9.43
2023-02-02T05:39:40.260Z,9.93
2023-02-02T05:42:07.267Z,9.50
2023-02-02T05:44:34.168Z,12.70
2023-02-02T05:47:01.268Z,10.48
2023-02-02T05:49:28.203Z,12.75
2023-02-02T05:51:57.330Z,6.70
2023-02-02T05:54:24.582Z,14.95
2023-02-02T05:56:53.341Z,11.10
2023-02-02T05:59:20.520Z,10.57
2023-02-02T06:01:47.819Z,9.55
2023-02-02T06:04:15.762Z,7.75
2023-02-02T06:06:43.027Z,15.52
2023-02-02T06:09:10.252Z,5.95
2023-02-02T06:11:37.355Z,5.80
2023-02-02T06:14:04.443Z,3.28
2023-02-02T06:16:31.671Z,3.70
2023-02-02T06:18:58.644Z,5.82
2023-02-02T06:21:25.611Z,3.35
2023-02-02T06:23:52.985Z,3.30
2023-02-02T06:26:20.056Z,2.78
2023-02-02T06:28:51.946Z,2.10
2023-02-02T06:33:48.237Z,1.55
2023-02-02T06:36:15.590Z,2.00
2023-02-02T06:38:42.669Z,1.58
2023-02-02T06:41:09.761Z,1.52
2023-02-02T06:43:36.857Z,2.10
2023-02-02T06:46:03.872Z,1.70
2023-02-02T06:48:31.078Z,1.50
2023-02-02T06:50:59.713Z,3.30
2023-02-02T06:53:27.492Z,1.02
2023-02-02T06:55:59.002Z,1.80
2023-02-02T06:58:26.264Z,2.22
2023-02-02T07:00:53.701Z,2.03
2023-02-02T07:03:21.565Z,0.98
2023-02-02T07:05:49.362Z,2.17
2023-02-02T07:08:16.802Z,1.42
2023-02-02T07:11:12.944Z,1.35
2023-02-02T07:13:31.899Z,2.65
2023-02-02T07:15:59.106Z,2.13
2023-02-02T07:18:26.180Z,2.40
2023-02-02T07:20:53.113Z,2.60
2023-02-02T07:23:20.086Z,3.08
2023-02-02T07:25:47.181Z,3.90
2023-02-02T07:28:14.215Z,5.55
2023-02-02T07:30:41.373Z,1.83
2023-02-02T07:33:08.327Z,3.83
2023-02-02T07:35:35.357Z,3.20
2023-02-02T07:38:02.348Z,1.42
2023-02-02T07:40:29.319Z,3.13
2023-02-02T07:43:00.617Z,3.55
2023-02-02T07:45:28.297Z,4.70
2023-02-02T07:47:59.960Z,5.75
2023-02-02T07:50:27.955Z,4.13
2023-02-02T07:52:55.509Z,2.50
2023-02-02T07:55:22.735Z,3.55
2023-02-02T07:57:52.184Z,3.97
2023-02-02T08:00:19.898Z,4.55
2023-02-02T08:02:49.580Z,2.40
2023-02-02T08:05:17.271Z,3.03
2023-02-02T08:07:44.909Z,2.67
2023-02-02T08:10:12.388Z,4.43
2023-02-02T08:12:39.332Z,3.45
2023-02-02T08:15:07.591Z,4.80
2023-02-02T08:17:34.639Z,2.90
2023-02-02T08:20:01.600Z,3.90
2023-02-02T08:22:28.631Z,2.95
2023-02-02T08:24:55.564Z,2.80
2023-02-02T08:27:22.642Z,2.60
2023-02-02T08:29:49.618Z,4.57
2023-02-02T08:32:16.580Z,2.75
2023-02-02T08:34:43.526Z,3.65
2023-02-02T08:37:10.622Z,3.10
2023-02-02T08:39:37.651Z,3.03
2023-02-02T08:42:04.678Z,3.72
2023-02-02T08:46:00.215Z,3.50
2023-02-02T08:47:18.396Z,2.65
2023-02-02T08:49:45.767Z,3.45
2023-02-02T08:52:12.769Z,3.47
2023-02-02T08:54:39.883Z,2.40
2023-02-02T08:57:06.830Z,2.63
2023-02-02T08:59:33.753Z,2.50
2023-02-02T09:02:00.824Z,2.83
2023-02-02T09:04:27.812Z,2.38
2023-02-02T09:06:55.389Z,2.45
2023-02-02T09:09:22.442Z,5.00
2023-02-02T09:11:49.542Z,1.83
2023-02-02T09:14:16.597Z,2.85
2023-02-02T09:16:43.594Z,3.88
2023-02-02T09:19:11.922Z,1.10
2023-02-02T09:21:38.972Z,1.70
2023-02-02T09:24:07.840Z,1.10
2023-02-02T09:26:34.839Z,1.30
2023-02-02T09:29:04.544Z,1.70
2023-02-02T09:31:35.932Z,2.22
2023-02-02T09:34:05.880Z,2.08
2023-02-02T09:36:33.216Z,1.33
2023-02-02T09:39:00.248Z,1.58
2023-02-02T09:42:09.123Z,2.33
2023-02-02T09:44:46.834Z,2.03
2023-02-02T09:47:20.969Z,1.77
2023-02-02T09:50:02.932Z,1.85
2023-02-02T09:53:02.227Z,2.22
2023-02-02T09:55:40.912Z,1.98
2023-02-02T09:58:14.891Z,1.90
2023-02-02T10:00:48.629Z,3.40
2023-02-02T10:03:18.661Z,5.30
2023-02-02T10:06:14.758Z,2.20
2023-02-02T10:08:46.325Z,1.85
2023-02-02T10:11:25.440Z,4.35
2023-02-02T10:13:55.178Z,5.55
2023-02-02T10:16:23.359Z,1.80
2023-02-02T10:19:12.803Z,2.78
2023-02-02T10:21:40.548Z,2.78
2023-02-02T10:27:04.607Z,3.70
2023-02-02T10:30:13.959Z,2.55
2023-02-02T10:33:02.344Z,2.08
2023-02-02T10:35:53.050Z,1.08
2023-02-02T10:38:38.718Z,2.55
2023-02-02T10:41:25.768Z,3.13
2023-02-02T10:44:30.508Z,5.85
2023-02-02T10:47:00.925Z,4.53
2023-02-02T10:49:39.355Z,2.28
2023-02-02T10:52:18.239Z,4.93
2023-02-02T10:54:57.298Z,3.22
2023-02-02T10:58:04.071Z,1.95
2023-02-02T11:00:47.654Z,1.27
2023-02-02T11:03:16.556Z,2.25
2023-02-02T11:06:01.947Z,1.60
2023-02-02T11:08:34.807Z,2.60
2023-02-02T11:11:25.267Z,4.18
2023-02-02T11:13:55.519Z,2.40
2023-02-02T11:16:35.449Z,2.85
2023-02-02T11:19:29.874Z,2.40
2023-02-02T11:21:59.131Z,2.17
2023-02-02T11:24:36.800Z,2.88
2023-02-02T11:27:21.575Z,2.30
2023-02-02T11:29:51.899Z,2.63
2023-02-02T11:32:38.096Z,2.78
2023-02-02T11:35:08.329Z,1.45
2023-02-02T11:37:37.105Z,5.13
2023-02-02T11:40:28.923Z,2.15
2023-02-02T11:42:58.347Z,1.45
2023-02-02T11:45:41.591Z,2.00
2023-02-02T11:48:16.209Z,1.95
2023-02-02T11:50:52.254Z,1.80
2023-02-02T11:53:44.696Z,1.20
2023-02-02T11:56:20.405Z,1.75
2023-02-02T11:58:51.289Z,2.80
2023-02-02T12:01:27.449Z,2.03
2023-02-02T12:03:59.508Z,1.52
2023-02-02T12:06:34.971Z,1.58
2023-02-02T12:09:14.021Z,1.55
2023-02-02T12:11:50.262Z,2.35
2023-02-02T12:14:41.462Z,2.92
2023-02-02T12:17:46.876Z,3.38
2023-02-02T12:20:21.832Z,2.50
2023-02-02T12:23:17.956Z,1.67
2023-02-02T12:26:15.479Z,2.75
2023-02-02T12:29:03.815Z,2.30
2023-02-02T12:32:08.445Z,1.95
2023-02-02T12:34:54.049Z,3.05
2023-02-02T12:37:20.988Z,2.40
2023-02-02T12:40:25.812Z,2.80
2023-02-02T12:42:55.660Z,1.98
2023-02-02T12:45:34.776Z,2.85
2023-02-02T12:48:32.943Z,2.22
2023-02-02T12:51:27.318Z,5.28
2023-02-02T12:54:45.756Z,3.20
2023-02-02T12:57:28.902Z,2.92
2023-02-02T13:00:17.644Z,2.42
2023-02-02T13:02:53.222Z,2.42
2023-02-02T13:05:54.799Z,2.22
2023-02-02T13:08:56.561Z,2.92
2023-02-02T13:11:33.854Z,3.53
2023-02-02T13:14:08.529Z,4.78
2023-02-02T13:16:37.560Z,3.35
2023-02-02T13:19:11.791Z,3.67
2023-02-02T13:21:40.088Z,4.05
2023-02-02T13:24:08.416Z,4.13
2023-02-02T13:26:39.072Z,3.17
2023-02-02T13:29:11.718Z,4.78
2023-02-02T13:31:44.829Z,3.95
2023-02-02T13:34:23.142Z,4.07
2023-02-02T13:36:57.793Z,6.90
2023-02-02T13:39:34.113Z,7.13
2023-02-02T13:42:03.020Z,4.15
2023-02-02T13:44:35.955Z,5.22
2023-02-02T13:47:23.094Z,9.63
2023-02-02T13:49:53.965Z,5.28
2023-02-02T13:52:48.436Z,9.55
2023-02-02T13:55:21.634Z,4.35
2023-02-02T14:00:51.218Z,2.90
2023-02-02T14:03:41.492Z,4.00
2023-02-02T14:06:17.568Z,3.85
2023-02-02T14:08:58.391Z,2.65
2023-02-02T14:11:29.474Z,9.00
2023-02-02T14:14:32.068Z,5.32
2023-02-02T14:17:04.517Z,1.58
2023-02-02T14:19:31.441Z,3.38
2023-02-02T14:22:38.547Z,6.28
2023-02-02T14:25:30.105Z,2.92
2023-02-02T14:28:09.884Z,2.08
2023-02-02T14:30:38.841Z,3.97
2023-02-02T14:33:26.571Z,3.72
2023-02-02T14:36:01.369Z,3.67
2023-02-02T14:38:59.529Z,2.45
2023-02-02T14:42:01.085Z,3.30
2023-02-02T14:44:28.673Z,5.57
2023-02-02T14:46:55.676Z,5.63
2023-02-02T14:49:25.652Z,6.82
2023-02-02T14:51:59.322Z,2.58
2023-02-02T14:54:30.573Z,5.28
2023-02-02T14:57:00.805Z,5.95
2023-02-02T14:59:40.302Z,4.57
2023-02-02T15:02:15.795Z,6.05
2023-02-02T15:04:43.658Z,4.82
2023-02-02T15:07:32.133Z,4.20
2023-02-02T15:09:59.076Z,3.78
2023-02-02T15:12:45.989Z,3.35
2023-02-02T15:15:20.300Z,2.40
2023-02-02T15:17:56.042Z,5.00
2023-02-02T15:20:29.015Z,3.60
2023-02-02T15:23:22.481Z,4.65
2023-02-02T15:26:11.156Z,2.22
2023-02-02T15:28:41.582Z,2.08
2023-02-02T15:31:11.906Z,5.38
2023-02-02T15:33:44.447Z,2.15
2023-02-02T15:36:19.028Z,2.72
2023-02-02T15:38:48.932Z,1.88
2023-02-02T15:41:37.806Z,2.53
2023-02-02T15:44:30.006Z,4.28
2023-02-02T15:46:58.173Z,2.78
2023-02-02T15:49:35.360Z,3.70
2023-02-02T15:52:18.699Z,2.92
2023-02-02T15:54:51.853Z,3.28
2023-02-02T15:57:29.737Z,3.75
2023-02-02T15:59:58.177Z,2.83
2023-02-02T16:02:42.994Z,1.52
2023-02-02T16:05:31.835Z,2.35
2023-02-02T16:08:05.711Z,4.60
2023-02-02T16:10:34.280Z,3.25
2023-02-02T16:13:02.103Z,6.80
2023-02-02T16:15:31.819Z,4.10
2023-02-02T16:18:03.761Z,5.03
2023-02-02T16:23:02.255Z,3.65
2023-02-02T16:25:34.920Z,3.25
2023-02-02T16:28:03.418Z,6.97
2023-02-02T16:30:37.895Z,4.82
2023-02-02T16:33:28.059Z,3.75
2023-02-02T16:35:55.579Z,3.03
2023-02-02T16:38:37.430Z,3.40
2023-02-02T16:43:31.956Z,3.80
2023-02-02T16:46:04.645Z,6.43
2023-02-02T16:48:39.761Z,4.70
2023-02-02T16:51:12.471Z,5.10
2023-02-02T16:53:39.557Z,1.98
2023-02-02T16:56:07.704Z,5.25
2023-02-02T16:58:40.482Z,3.60
2023-02-02T17:01:16.299Z,3.70
2023-02-02T17:03:51.396Z,2.70
2023-02-02T17:06:26.585Z,4.53
2023-02-02T17:08:53.461Z,5.25
2023-02-02T17:11:25.054Z,8.45
2023-02-02T17:13:53.287Z,4.45
2023-02-02T17:16:22.435Z,4.43
2023-02-02T17:18:49.602Z,3.88
2023-02-02T17:21:24.497Z,3.95
2023-02-02T17:23:54.252Z,4.10
2023-02-02T17:26:21.413Z,4.07
2023-02-02T17:29:00.343Z,3.58
2023-02-02T17:31:27.404Z,3.13
2023-02-02T17:33:54.377Z,3.58
2023-02-02T17:36:21.270Z,4.10
2023-02-02T17:38:48.164Z,3.97
2023-02-02T17:41:15.337Z,4.97
2023-02-02T17:43:43.002Z,2.83
2023-02-02T17:46:13.201Z,5.82
2023-02-02T17:48:40.171Z,4.28
2023-02-02T17:51:16.355Z,3.90
2023-02-02T17:53:44.788Z,4.10
2023-02-02T17:56:11.676Z,5.60
2023-02-02T17:58:38.609Z,3.75
2023-02-02T18:01:05.761Z,4.95
2023-02-02T18:03:34.932Z,3.42
2023-02-02T18:06:02.519Z,2.95
2023-02-02T18:08:30.129Z,3.70
2023-02-02T18:10:57.343Z,3.85
2023-02-02T18:13:24.514Z,2.45
2023-02-02T18:15:52.731Z,2.72
2023-02-02T18:18:20.023Z,3.40
2023-02-02T18:20:49.188Z,2.03
2023-02-02T18:23:17.475Z,8.57
2023-02-02T18:25:44.538Z,14.20
2023-02-02T18:28:11.797Z,4.70
2023-02-02T18:30:39.802Z,4.40
2023-02-02T18:33:10.760Z,5.18
2023-02-02T18:35:45.052Z,2.47
2023-02-02T18:38:13.088Z,3.63
2023-02-02T18:40:40.241Z,3.25
2023-02-02T18:43:08.487Z,4.55
2023-02-02T18:45:36.576Z,4.70
2023-02-02T18:48:03.515Z,4.28
2023-02-02T18:50:30.850Z,5.47
2023-02-02T18:52:57.983Z,6.20
2023-02-02T18:55:25.339Z,5.05
2023-02-02T18:57:52.871Z,2.97
2023-02-02T19:00:22.120Z,6.38
2023-02-02T19:02:48.994Z,5.80
2023-02-02T19:05:34.617Z,3.95
2023-02-02T19:08:03.959Z,4.35
2023-02-02T19:10:31.768Z,4.78
2023-02-02T19:13:18.243Z,4.70
2023-02-02T19:15:47.264Z,3.58
2023-02-02T19:18:16.821Z,2.63
2023-02-02T19:20:44.270Z,3.97
2023-02-02T19:23:14.154Z,6.30
2023-02-02T19:25:42.376Z,9.55
2023-02-02T19:28:25.286Z,3.38
2023-02-02T19:30:53.617Z,3.42
2023-02-02T19:33:21.582Z,11.65
2023-02-02T19:35:51.786Z,8.52
2023-02-02T19:38:21.802Z,6.18
2023-02-02T19:40:50.046Z,3.85
2023-02-02T19:43:25.537Z,4.13
2023-02-02T19:45:54.086Z,5.50
2023-02-02T19:48:27.279Z,3.03
2023-02-02T19:50:55.990Z,4.38
2023-02-02T19:53:28.484Z,4.93
2023-02-02T19:55:55.715Z,3.85
2023-02-02T19:58:24.957Z,4.30
2023-02-02T20:00:53.867Z,4.78
2023-02-02T20:03:23.845Z,6.47
2023-02-02T20:05:52.559Z,3.85
2023-02-02T20:08:38.049Z,3.70
2023-02-02T20:11:23.975Z,4.68
2023-02-02T20:13:51.741Z,4.05
2023-02-02T20:16:20.875Z,5.95
2023-02-02T20:18:53.886Z,5.55
2023-02-02T20:21:37.989Z,4.40
2023-02-02T20:24:16.369Z,7.18
2023-02-02T20:26:43.551Z,6.50
2023-02-02T20:29:28.225Z,5.10
2023-02-02T20:32:00.187Z,4.32
2023-02-02T20:34:30.463Z,4.18
2023-02-02T20:37:05.067Z,3.45
2023-02-02T20:40:02.757Z,6.22
2023-02-02T20:42:29.963Z,3.65
2023-02-02T20:44:58.396Z,5.85
2023-02-02T20:47:25.533Z,8.43
2023-02-02T20:49:52.613Z,4.95
2023-02-02T20:52:24.246Z,6.72
2023-02-02T20:57:18.964Z,21.20
2023-02-02T20:59:46.259Z,19.88
2023-02-02T21:02:19.184Z,25.58
2023-02-02T21:04:47.991Z,19.10
2023-02-02T21:07:17.156Z,24.60
2023-02-02T21:09:44.971Z,64.63
2023-02-02T21:12:12.323Z,15.32
2023-02-02T21:14:39.376Z,17.80
2023-02-02T21:17:14.930Z,18.02
2023-02-02T21:19:43.267Z,15.50
2023-02-02T21:22:11.110Z,9.00
2023-02-02T21:24:38.467Z,5.97
2023-02-02T21:27:05.526Z,4.53
2023-02-02T21:29:33.092Z,5.43
2023-02-02T21:32:02.743Z,8.23
2023-02-02T21:34:31.144Z,8.10
2023-02-02T21:36:58.909Z,3.72
2023-02-02T21:39:35.801Z,5.38
2023-02-02T21:42:13.392Z,6.07
2023-02-02T21:45:08.749Z,4.05
2023-02-02T21:47:37.755Z,4.60
2023-02-02T21:50:15.588Z,7.22
2023-02-02T21:52:43.042Z,4.57
2023-02-02T21:55:34.843Z,7.68
2023-02-02T21:58:15.394Z,17.98
2023-02-02T22:00:42.545Z,20.20
2023-02-02T22:03:34.882Z,20.33
2023-02-02T22:06:27.973Z,23.77
2023-02-02T22:09:01.566Z,30.60
2023-02-02T22:11:32.913Z,33.20
2023-02-02T22:14:11.294Z,35.95
2023-02-02T22:16:41.534Z,43.00
2023-02-02T22:19:33.088Z,37.92
2023-02-02T22:22:20.973Z,29.77
2023-02-02T22:25:00.554Z,33.58
2023-02-02T22:27:42.520Z,32.92
2023-02-02T22:30:41.087Z,34.17
2023-02-02T22:33:10.415Z,33.42
2023-02-02T22:35:37.782Z,25.38
2023-02-02T22:38:05.033Z,35.03
2023-02-02T22:40:31.875Z,44.72
2023-02-02T22:43:02.104Z,35.90
2023-02-02T22:45:29.513Z,28.75
2023-02-02T22:47:56.387Z,33.95
2023-02-02T22:50:26.182Z,31.92
2023-02-02T22:52:53.278Z,13.30
2023-02-02T22:55:20.595Z,11.77
2023-02-02T22:57:47.882Z,11.05
2023-02-02T23:00:19.879Z,12.30
2023-02-02T23:02:46.832Z,7.97
2023-02-02T23:05:15.605Z,11.93
2023-02-02T23:07:45.307Z,9.55
2023-02-02T23:10:14.780Z,19.73
2023-02-02T23:12:42.625Z,19.63
2023-02-02T23:15:10.445Z,17.42
2023-02-02T23:17:37.502Z,18.13
2023-02-02T23:20:06.748Z,19.85
2023-02-02T23:22:33.580Z,15.55
2023-02-02T23:25:00.523Z,12.23
2023-02-02T23:27:27.550Z,9.32
2023-02-02T23:29:54.416Z,10.85
2023-02-02T23:32:21.354Z,12.15
2023-02-02T23:34:48.262Z,14.80
2023-02-02T23:37:15.142Z,18.33
2023-02-02T23:39:42.148Z,39.55
2023-02-02T23:44:35.933Z,19.98
2023-02-02T23:47:03.664Z,27.02
2023-02-02T23:49:34.448Z,34.85
2023-02-02T23:52:01.434Z,48.72
2023-02-02T23:54:29.428Z,43.88
2023-02-02T23:56:57.181Z,36.40
2023-02-02T23:59:24.381Z,27.77
